Hoback Junction, Wyoming
Current Conditions -  °F | °C
As of 2:55 AM on Tuesday 21 Oct 2014 (Local Time) from KJAC Reporting Station
Broken Clouds Broken Clouds  
Wind Chill: -2°   Ceiling: 8500
Heat Index:   Visibility: 10mi
Dew Point: -1°   Wind: 7mph
Humidity: 87%   Direction: 10°N
Pressure: 29.99"   Gusts: NA
Location:  43.4143°N, 110.582°W
Report Text: KJAC 210855Z AUTO 01006KT 10SM BKN085 01/M01 A2999 RMK AO1 57010
Loading
Personal Weather Stations






























Interactive Weather Map
Tropical Storm Tracking
New forecast layout! Learn more

10-Day Weather Forecast

Advertisements
Track Severe Weather on mobile